sensor_id;sensor_type;location;lat;lon;timestamp;temperature;humidity
18932;DHT22;9598;50.954;3.112;2023-04-06T00:01:29;10.70;99.90
18932;DHT22;9598;50.954;3.112;2023-04-06T00:06:33;10.70;99.90
18932;DHT22;9598;50.954;3.112;2023-04-06T00:11:35;10.70;99.90
18932;DHT22;9598;50.954;3.112;2023-04-06T00:16:37;10.70;99.90
18932;DHT22;9598;50.954;3.112;2023-04-06T00:21:41;10.70;99.90
18932;DHT22;9598;50.954;3.112;2023-04-06T00:26:43;10.60;99.90
18932;DHT22;9598;50.954;3.112;2023-04-06T00:31:45;10.60;99.90
18932;DHT22;9598;50.954;3.112;2023-04-06T00:36:48;10.50;99.90
18932;DHT22;9598;50.954;3.112;2023-04-06T00:41:55;10.50;99.90
18932;DHT22;9598;50.954;3.112;2023-04-06T00:46:57;10.50;99.90
18932;DHT22;9598;50.954;3.112;2023-04-06T00:52:01;10.50;99.90
18932;DHT22;9598;50.954;3.112;2023-04-06T00:57:03;10.50;99.90
18932;DHT22;9598;50.954;3.112;2023-04-06T01:02:06;10.50;99.90
18932;DHT22;9598;50.954;3.112;2023-04-06T01:07:16;10.30;99.90
18932;DHT22;9598;50.954;3.112;2023-04-06T01:12:33;10.30;99.90
18932;DHT22;9598;50.954;3.112;2023-04-06T01:17:39;10.30;99.90
18932;DHT22;9598;50.954;3.112;2023-04-06T01:22:48;10.20;99.90
18932;DHT22;9598;50.954;3.112;2023-04-06T01:27:52;10.30;99.90
18932;DHT22;9598;50.954;3.112;2023-04-06T01:33:01;10.20;99.90
18932;DHT22;9598;50.954;3.112;2023-04-06T01:38:35;10.30;99.90
18932;DHT22;9598;50.954;3.112;2023-04-06T01:43:37;10.30;99.90
18932;DHT22;9598;50.954;3.112;2023-04-06T01:48:43;10.30;99.90
18932;DHT22;9598;50.954;3.112;2023-04-06T01:53:55;10.20;99.90
18932;DHT22;9598;50.954;3.112;2023-04-06T01:59:05;10.20;99.90
18932;DHT22;9598;50.954;3.112;2023-04-06T02:04:13;10.10;99.90
18932;DHT22;9598;50.954;3.112;2023-04-06T02:09:18;10.10;99.90
18932;DHT22;9598;50.954;3.112;2023-04-06T02:14:20;10.10;99.90
18932;DHT22;9598;50.954;3.112;2023-04-06T02:19:27;10.10;99.90
18932;DHT22;9598;50.954;3.112;2023-04-06T02:24:30;10.10;99.90
18932;DHT22;9598;50.954;3.112;2023-04-06T02:29:32;10.10;99.90
18932;DHT22;9598;50.954;3.112;2023-04-06T02:34:35;10.10;99.90
18932;DHT22;9598;50.954;3.112;2023-04-06T02:39:39;10.00;99.90
18932;DHT22;9598;50.954;3.112;2023-04-06T02:44:43;10.00;99.90
18932;DHT22;9598;50.954;3.112;2023-04-06T02:49:46;10.10;99.90
18932;DHT22;9598;50.954;3.112;2023-04-06T02:54:50;10.00;99.90
18932;DHT22;9598;50.954;3.112;2023-04-06T02:59:59;10.00;99.90
18932;DHT22;9598;50.954;3.112;2023-04-06T03:05:09;10.00;99.90
18932;DHT22;9598;50.954;3.112;2023-04-06T03:10:20;10.00;99.90
18932;DHT22;9598;50.954;3.112;2023-04-06T03:15:23;10.00;99.90
18932;DHT22;9598;50.954;3.112;2023-04-06T03:20:31;10.00;99.90
18932;DHT22;9598;50.954;3.112;2023-04-06T03:25:35;9.90;99.90
18932;DHT22;9598;50.954;3.112;2023-04-06T03:30:40;9.90;99.90
18932;DHT22;9598;50.954;3.112;2023-04-06T03:35:43;9.90;99.90
18932;DHT22;9598;50.954;3.112;2023-04-06T03:40:48;9.80;99.90
18932;DHT22;9598;50.954;3.112;2023-04-06T03:45:55;9.80;99.90
18932;DHT22;9598;50.954;3.112;2023-04-06T03:50:57;9.80;99.90
18932;DHT22;9598;50.954;3.112;2023-04-06T03:56:02;9.80;99.90
18932;DHT22;9598;50.954;3.112;2023-04-06T04:01:04;9.80;99.90
18932;DHT22;9598;50.954;3.112;2023-04-06T04:06:07;9.80;99.90
18932;DHT22;9598;50.954;3.112;2023-04-06T04:11:10;9.80;99.90
18932;DHT22;9598;50.954;3.112;2023-04-06T04:16:13;9.80;99.90
18932;DHT22;9598;50.954;3.112;2023-04-06T04:21:16;9.80;99.90
18932;DHT22;9598;50.954;3.112;2023-04-06T04:26:20;9.70;99.90
18932;DHT22;9598;50.954;3.112;2023-04-06T04:31:22;9.70;99.90
18932;DHT22;9598;50.954;3.112;2023-04-06T04:36:29;9.70;99.90
18932;DHT22;9598;50.954;3.112;2023-04-06T04:41:35;9.80;99.90
18932;DHT22;9598;50.954;3.112;2023-04-06T04:46:41;9.70;99.90
18932;DHT22;9598;50.954;3.112;2023-04-06T04:51:45;9.70;99.90
18932;DHT22;9598;50.954;3.112;2023-04-06T04:56:54;9.60;99.90
18932;DHT22;9598;50.954;3.112;2023-04-06T05:02:05;9.50;99.90
18932;DHT22;9598;50.954;3.112;2023-04-06T05:07:23;9.50;99.90
18932;DHT22;9598;50.954;3.112;2023-04-06T05:12:29;9.50;99.90
18932;DHT22;9598;50.954;3.112;2023-04-06T05:17:40;9.50;99.90
18932;DHT22;9598;50.954;3.112;2023-04-06T05:22:44;9.50;99.90
18932;DHT22;9598;50.954;3.112;2023-04-06T05:27:48;9.50;99.90
18932;DHT22;9598;50.954;3.112;2023-04-06T05:33:02;9.50;99.90
18932;DHT22;9598;50.954;3.112;2023-04-06T05:38:15;9.50;99.90
18932;DHT22;9598;50.954;3.112;2023-04-06T05:43:19;9.40;99.90
18932;DHT22;9598;50.954;3.112;2023-04-06T05:48:27;9.40;99.90
18932;DHT22;9598;50.954;3.112;2023-04-06T05:53:30;9.40;99.90
18932;DHT22;9598;50.954;3.112;2023-04-06T05:58:36;9.40;99.90
18932;DHT22;9598;50.954;3.112;2023-04-06T06:03:39;9.50;99.90
18932;DHT22;9598;50.954;3.112;2023-04-06T06:08:41;9.40;99.90
18932;DHT22;9598;50.954;3.112;2023-04-06T06:13:50;9.40;99.90
18932;DHT22;9598;50.954;3.112;2023-04-06T06:18:52;9.40;99.90
18932;DHT22;9598;50.954;3.112;2023-04-06T06:23:54;9.40;99.90
18932;DHT22;9598;50.954;3.112;2023-04-06T06:28:59;9.40;99.90
18932;DHT22;9598;50.954;3.112;2023-04-06T06:34:02;9.40;99.90
18932;DHT22;9598;50.954;3.112;2023-04-06T06:39:07;9.40;99.90
18932;DHT22;9598;50.954;3.112;2023-04-06T06:44:10;9.30;99.90
18932;DHT22;9598;50.954;3.112;2023-04-06T06:49:13;9.30;99.90
18932;DHT22;9598;50.954;3.112;2023-04-06T06:54:16;9.30;99.90
18932;DHT22;9598;50.954;3.112;2023-04-06T06:59:19;9.20;99.90
18932;DHT22;9598;50.954;3.112;2023-04-06T07:04:24;9.20;99.90
18932;DHT22;9598;50.954;3.112;2023-04-06T07:09:26;9.20;99.90
18932;DHT22;9598;50.954;3.112;2023-04-06T07:14:30;9.30;99.90
18932;DHT22;9598;50.954;3.112;2023-04-06T07:19:32;9.30;99.90
18932;DHT22;9598;50.954;3.112;2023-04-06T07:24:35;9.30;99.90
18932;DHT22;9598;50.954;3.112;2023-04-06T07:29:39;9.30;99.90
18932;DHT22;9598;50.954;3.112;2023-04-06T07:34:41;9.40;99.90
18932;DHT22;9598;50.954;3.112;2023-04-06T07:39:46;9.30;99.90
18932;DHT22;9598;50.954;3.112;2023-04-06T07:44:49;9.30;99.90
18932;DHT22;9598;50.954;3.112;2023-04-06T07:49:54;9.30;99.90
18932;DHT22;9598;50.954;3.112;2023-04-06T07:54:56;9.30;99.90
18932;DHT22;9598;50.954;3.112;2023-04-06T08:00:00;9.30;99.90
18932;DHT22;9598;50.954;3.112;2023-04-06T08:05:13;9.30;99.90
18932;DHT22;9598;50.954;3.112;2023-04-06T08:10:15;9.30;99.90
18932;DHT22;9598;50.954;3.112;2023-04-06T08:15:19;9.30;99.90
18932;DHT22;9598;50.954;3.112;2023-04-06T08:20:21;9.30;99.90
18932;DHT22;9598;50.954;3.112;2023-04-06T08:25:23;9.30;99.90
18932;DHT22;9598;50.954;3.112;2023-04-06T08:30:27;9.30;99.90
18932;DHT22;9598;50.954;3.112;2023-04-06T08:35:29;9.30;99.90
18932;DHT22;9598;50.954;3.112;2023-04-06T08:40:36;9.40;99.90
18932;DHT22;9598;50.954;3.112;2023-04-06T08:45:41;9.40;99.90
18932;DHT22;9598;50.954;3.112;2023-04-06T08:50:44;9.40;99.90
18932;DHT22;9598;50.954;3.112;2023-04-06T08:55:46;9.30;99.90
18932;DHT22;9598;50.954;3.112;2023-04-06T09:00:51;9.30;99.90
18932;DHT22;9598;50.954;3.112;2023-04-06T09:05:53;9.30;99.90
18932;DHT22;9598;50.954;3.112;2023-04-06T09:10:56;9.30;99.90
18932;DHT22;9598;50.954;3.112;2023-04-06T09:16:01;9.40;99.90
18932;DHT22;9598;50.954;3.112;2023-04-06T09:21:04;9.30;99.90
18932;DHT22;9598;50.954;3.112;2023-04-06T09:26:09;9.40;99.90
18932;DHT22;9598;50.954;3.112;2023-04-06T09:31:13;9.40;99.90
18932;DHT22;9598;50.954;3.112;2023-04-06T09:36:16;9.40;99.90
18932;DHT22;9598;50.954;3.112;2023-04-06T09:41:21;9.50;99.90
18932;DHT22;9598;50.954;3.112;2023-04-06T09:46:25;9.50;99.90
18932;DHT22;9598;50.954;3.112;2023-04-06T09:51:30;9.60;99.90
18932;DHT22;9598;50.954;3.112;2023-04-06T09:56:39;9.50;99.90
18932;DHT22;9598;50.954;3.112;2023-04-06T10:01:47;9.50;99.90
18932;DHT22;9598;50.954;3.112;2023-04-06T10:06:50;9.50;99.90
18932;DHT22;9598;50.954;3.112;2023-04-06T10:11:53;9.50;99.90
18932;DHT22;9598;50.954;3.112;2023-04-06T10:16:58;9.60;99.90
18932;DHT22;9598;50.954;3.112;2023-04-06T10:22:03;9.60;99.90
18932;DHT22;9598;50.954;3.112;2023-04-06T10:27:06;9.60;99.90
18932;DHT22;9598;50.954;3.112;2023-04-06T10:32:13;9.60;99.90
18932;DHT22;9598;50.954;3.112;2023-04-06T10:37:16;9.60;99.90
18932;DHT22;9598;50.954;3.112;2023-04-06T10:42:24;9.70;99.90
18932;DHT22;9598;50.954;3.112;2023-04-06T10:47:27;9.80;99.90
18932;DHT22;9598;50.954;3.112;2023-04-06T10:52:40;9.80;99.90
18932;DHT22;9598;50.954;3.112;2023-04-06T10:57:42;9.80;99.90
18932;DHT22;9598;50.954;3.112;2023-04-06T11:02:46;9.80;99.90
18932;DHT22;9598;50.954;3.112;2023-04-06T11:07:48;9.90;99.90
18932;DHT22;9598;50.954;3.112;2023-04-06T11:12:54;9.90;99.90
18932;DHT22;9598;50.954;3.112;2023-04-06T11:17:58;10.00;99.90
18932;DHT22;9598;50.954;3.112;2023-04-06T11:23:00;10.10;99.90
18932;DHT22;9598;50.954;3.112;2023-04-06T11:28:02;10.10;99.90
18932;DHT22;9598;50.954;3.112;2023-04-06T11:33:06;10.20;99.90
18932;DHT22;9598;50.954;3.112;2023-04-06T11:38:08;10.30;99.90
18932;DHT22;9598;50.954;3.112;2023-04-06T11:43:11;10.40;99.90
18932;DHT22;9598;50.954;3.112;2023-04-06T11:48:24;10.50;99.90
18932;DHT22;9598;50.954;3.112;2023-04-06T11:53:27;10.50;99.90
18932;DHT22;9598;50.954;3.112;2023-04-06T11:58:30;10.50;99.90
18932;DHT22;9598;50.954;3.112;2023-04-06T12:03:33;10.60;99.90
18932;DHT22;9598;50.954;3.112;2023-04-06T12:08:35;10.70;99.90
18932;DHT22;9598;50.954;3.112;2023-04-06T12:13:38;10.80;99.90
18932;DHT22;9598;50.954;3.112;2023-04-06T12:18:41;10.90;99.90
18932;DHT22;9598;50.954;3.112;2023-04-06T12:23:44;11.00;99.90
18932;DHT22;9598;50.954;3.112;2023-04-06T12:28:46;11.00;99.90
18932;DHT22;9598;50.954;3.112;2023-04-06T12:33:50;11.10;99.90
18932;DHT22;9598;50.954;3.112;2023-04-06T12:38:52;11.10;99.90
18932;DHT22;9598;50.954;3.112;2023-04-06T12:43:55;11.10;99.90
18932;DHT22;9598;50.954;3.112;2023-04-06T12:48:59;11.20;99.90
18932;DHT22;9598;50.954;3.112;2023-04-06T12:54:01;11.30;99.90
18932;DHT22;9598;50.954;3.112;2023-04-06T12:59:03;11.50;99.90
18932;DHT22;9598;50.954;3.112;2023-04-06T13:04:07;11.60;99.90
18932;DHT22;9598;50.954;3.112;2023-04-06T13:09:09;11.70;99.90
18932;DHT22;9598;50.954;3.112;2023-04-06T13:14:11;11.70;99.90
18932;DHT22;9598;50.954;3.112;2023-04-06T13:19:15;11.70;99.90
18932;DHT22;9598;50.954;3.112;2023-04-06T13:24:18;11.80;99.90
18932;DHT22;9598;50.954;3.112;2023-04-06T13:29:22;11.80;99.90
18932;DHT22;9598;50.954;3.112;2023-04-06T13:34:26;11.90;99.90
18932;DHT22;9598;50.954;3.112;2023-04-06T13:39:28;12.00;99.90
18932;DHT22;9598;50.954;3.112;2023-04-06T13:44:30;12.10;99.90
18932;DHT22;9598;50.954;3.112;2023-04-06T13:49:34;12.20;99.90
18932;DHT22;9598;50.954;3.112;2023-04-06T13:54:36;12.20;99.90
18932;DHT22;9598;50.954;3.112;2023-04-06T13:59:39;12.20;99.90
18932;DHT22;9598;50.954;3.112;2023-04-06T14:04:42;12.20;99.90
18932;DHT22;9598;50.954;3.112;2023-04-06T14:09:44;12.20;99.90
18932;DHT22;9598;50.954;3.112;2023-04-06T14:14:47;12.30;99.90
18932;DHT22;9598;50.954;3.112;2023-04-06T14:19:50;12.40;99.90
18932;DHT22;9598;50.954;3.112;2023-04-06T14:24:53;12.50;99.90
18932;DHT22;9598;50.954;3.112;2023-04-06T14:29:56;12.50;99.90
18932;DHT22;9598;50.954;3.112;2023-04-06T14:34:59;12.60;99.90
18932;DHT22;9598;50.954;3.112;2023-04-06T14:40:02;12.70;99.90
18932;DHT22;9598;50.954;3.112;2023-04-06T14:45:05;12.70;99.90
18932;DHT22;9598;50.954;3.112;2023-04-06T14:50:10;12.80;99.90
18932;DHT22;9598;50.954;3.112;2023-04-06T14:55:12;12.80;99.90
18932;DHT22;9598;50.954;3.112;2023-04-06T15:00:15;12.80;99.90
18932;DHT22;9598;50.954;3.112;2023-04-06T15:05:19;12.70;99.90
18932;DHT22;9598;50.954;3.112;2023-04-06T15:10:21;12.80;99.90
18932;DHT22;9598;50.954;3.112;2023-04-06T15:15:23;12.90;99.90
18932;DHT22;9598;50.954;3.112;2023-04-06T15:20:26;13.00;99.90
18932;DHT22;9598;50.954;3.112;2023-04-06T15:25:29;13.10;99.90
18932;DHT22;9598;50.954;3.112;2023-04-06T15:30:31;13.10;99.90
18932;DHT22;9598;50.954;3.112;2023-04-06T15:35:35;13.10;99.90
18932;DHT22;9598;50.954;3.112;2023-04-06T15:40:43;13.20;99.90
18932;DHT22;9598;50.954;3.112;2023-04-06T15:45:45;13.20;99.90
18932;DHT22;9598;50.954;3.112;2023-04-06T15:50:49;13.10;99.90
18932;DHT22;9598;50.954;3.112;2023-04-06T15:55:51;13.10;99.90
18932;DHT22;9598;50.954;3.112;2023-04-06T16:00:59;13.10;99.90
18932;DHT22;9598;50.954;3.112;2023-04-06T16:06:02;13.10;99.90
18932;DHT22;9598;50.954;3.112;2023-04-06T16:11:05;13.20;99.90
18932;DHT22;9598;50.954;3.112;2023-04-06T16:16:07;13.20;99.90
18932;DHT22;9598;50.954;3.112;2023-04-06T16:21:14;13.00;99.90
18932;DHT22;9598;50.954;3.112;2023-04-06T16:26:17;12.80;99.90
18932;DHT22;9598;50.954;3.112;2023-04-06T16:31:20;12.70;99.90
18932;DHT22;9598;50.954;3.112;2023-04-06T16:36:24;12.60;99.90
18932;DHT22;9598;50.954;3.112;2023-04-06T16:41:28;12.50;99.90
18932;DHT22;9598;50.954;3.112;2023-04-06T16:46:31;12.50;99.90
18932;DHT22;9598;50.954;3.112;2023-04-06T16:51:35;12.50;99.90
18932;DHT22;9598;50.954;3.112;2023-04-06T16:56:37;12.50;99.90
18932;DHT22;9598;50.954;3.112;2023-04-06T17:01:39;12.60;99.90
18932;DHT22;9598;50.954;3.112;2023-04-06T17:06:43;12.70;99.90
18932;DHT22;9598;50.954;3.112;2023-04-06T17:11:45;12.70;99.90
18932;DHT22;9598;50.954;3.112;2023-04-06T17:16:47;12.70;99.90
18932;DHT22;9598;50.954;3.112;2023-04-06T17:21:50;12.80;99.90
18932;DHT22;9598;50.954;3.112;2023-04-06T17:26:53;12.80;99.90
18932;DHT22;9598;50.954;3.112;2023-04-06T17:31:56;12.90;99.90
18932;DHT22;9598;50.954;3.112;2023-04-06T17:36:59;12.90;99.90
18932;DHT22;9598;50.954;3.112;2023-04-06T17:42:02;12.90;99.90
18932;DHT22;9598;50.954;3.112;2023-04-06T17:47:05;12.80;99.90
18932;DHT22;9598;50.954;3.112;2023-04-06T17:52:08;12.80;99.90
18932;DHT22;9598;50.954;3.112;2023-04-06T17:57:10;12.80;99.90
18932;DHT22;9598;50.954;3.112;2023-04-06T18:02:12;12.70;99.90
18932;DHT22;9598;50.954;3.112;2023-04-06T18:07:17;12.70;99.90
18932;DHT22;9598;50.954;3.112;2023-04-06T18:12:19;12.70;99.90
18932;DHT22;9598;50.954;3.112;2023-04-06T18:17:21;12.60;99.90
18932;DHT22;9598;50.954;3.112;2023-04-06T18:22:24;12.60;99.90
18932;DHT22;9598;50.954;3.112;2023-04-06T18:27:27;12.50;99.90
18932;DHT22;9598;50.954;3.112;2023-04-06T18:32:29;12.30;99.90
18932;DHT22;9598;50.954;3.112;2023-04-06T18:37:33;12.30;99.90
18932;DHT22;9598;50.954;3.112;2023-04-06T18:42:36;12.20;99.90
18932;DHT22;9598;50.954;3.112;2023-04-06T18:47:38;12.20;99.90
18932;DHT22;9598;50.954;3.112;2023-04-06T18:52:42;12.20;99.90
18932;DHT22;9598;50.954;3.112;2023-04-06T18:57:44;12.20;99.90
18932;DHT22;9598;50.954;3.112;2023-04-06T19:02:46;12.20;99.90
18932;DHT22;9598;50.954;3.112;2023-04-06T19:07:49;12.20;99.90
18932;DHT22;9598;50.954;3.112;2023-04-06T19:12:52;12.10;99.90
18932;DHT22;9598;50.954;3.112;2023-04-06T19:17:55;12.00;99.90
18932;DHT22;9598;50.954;3.112;2023-04-06T19:22:58;11.90;99.90
18932;DHT22;9598;50.954;3.112;2023-04-06T19:28:02;11.90;99.90
18932;DHT22;9598;50.954;3.112;2023-04-06T19:33:05;11.90;99.90
18932;DHT22;9598;50.954;3.112;2023-04-06T19:38:08;11.90;99.90
18932;DHT22;9598;50.954;3.112;2023-04-06T19:43:10;11.70;99.90
18932;DHT22;9598;50.954;3.112;2023-04-06T19:48:12;11.60;99.90
18932;DHT22;9598;50.954;3.112;2023-04-06T19:53:16;11.50;99.90
18932;DHT22;9598;50.954;3.112;2023-04-06T19:58:18;11.50;99.90
18932;DHT22;9598;50.954;3.112;2023-04-06T20:03:21;11.50;99.90
18932;DHT22;9598;50.954;3.112;2023-04-06T20:08:24;11.30;99.90
18932;DHT22;9598;50.954;3.112;2023-04-06T20:13:28;11.20;99.90
18932;DHT22;9598;50.954;3.112;2023-04-06T20:18:31;11.10;99.90
18932;DHT22;9598;50.954;3.112;2023-04-06T20:23:34;11.10;99.90
18932;DHT22;9598;50.954;3.112;2023-04-06T20:28:37;11.10;99.90
18932;DHT22;9598;50.954;3.112;2023-04-06T20:33:40;11.10;99.90
18932;DHT22;9598;50.954;3.112;2023-04-06T20:38:43;11.00;99.90
18932;DHT22;9598;50.954;3.112;2023-04-06T20:43:46;11.00;99.90
18932;DHT22;9598;50.954;3.112;2023-04-06T20:48:48;11.10;99.90
18932;DHT22;9598;50.954;3.112;2023-04-06T20:53:51;11.10;99.90
18932;DHT22;9598;50.954;3.112;2023-04-06T20:58:55;11.10;99.90
18932;DHT22;9598;50.954;3.112;2023-04-06T21:03:58;11.10;99.90
18932;DHT22;9598;50.954;3.112;2023-04-06T21:09:01;11.00;99.90
18932;DHT22;9598;50.954;3.112;2023-04-06T21:14:03;11.00;99.90
18932;DHT22;9598;50.954;3.112;2023-04-06T21:19:06;11.00;99.90
18932;DHT22;9598;50.954;3.112;2023-04-06T21:24:09;11.00;99.90
18932;DHT22;9598;50.954;3.112;2023-04-06T21:29:11;11.00;99.90
18932;DHT22;9598;50.954;3.112;2023-04-06T21:34:13;10.90;99.90
18932;DHT22;9598;50.954;3.112;2023-04-06T21:39:17;10.90;99.90
18932;DHT22;9598;50.954;3.112;2023-04-06T21:44:19;10.80;99.90
18932;DHT22;9598;50.954;3.112;2023-04-06T21:49:21;10.80;99.90
18932;DHT22;9598;50.954;3.112;2023-04-06T21:54:24;10.70;99.90
18932;DHT22;9598;50.954;3.112;2023-04-06T21:59:26;10.70;99.90
18932;DHT22;9598;50.954;3.112;2023-04-06T22:04:29;10.70;99.90
18932;DHT22;9598;50.954;3.112;2023-04-06T22:09:33;10.70;99.90
18932;DHT22;9598;50.954;3.112;2023-04-06T22:14:35;10.70;99.90
18932;DHT22;9598;50.954;3.112;2023-04-06T22:19:37;10.70;99.90
18932;DHT22;9598;50.954;3.112;2023-04-06T22:24:41;10.70;99.90
18932;DHT22;9598;50.954;3.112;2023-04-06T22:29:43;10.70;99.90
18932;DHT22;9598;50.954;3.112;2023-04-06T22:34:45;10.80;99.90
18932;DHT22;9598;50.954;3.112;2023-04-06T22:39:48;10.80;99.90
18932;DHT22;9598;50.954;3.112;2023-04-06T22:44:50;10.70;99.90
18932;DHT22;9598;50.954;3.112;2023-04-06T22:49:52;10.70;99.90
18932;DHT22;9598;50.954;3.112;2023-04-06T22:54:56;10.70;99.90
18932;DHT22;9598;50.954;3.112;2023-04-06T22:59:58;10.70;99.90
18932;DHT22;9598;50.954;3.112;2023-04-06T23:05:00;10.70;99.90
18932;DHT22;9598;50.954;3.112;2023-04-06T23:10:04;10.80;99.90
18932;DHT22;9598;50.954;3.112;2023-04-06T23:15:08;10.80;99.90
18932;DHT22;9598;50.954;3.112;2023-04-06T23:20:10;10.80;99.90
18932;DHT22;9598;50.954;3.112;2023-04-06T23:25:14;10.80;99.90
18932;DHT22;9598;50.954;3.112;2023-04-06T23:30:16;10.80;99.90
18932;DHT22;9598;50.954;3.112;2023-04-06T23:35:18;10.80;99.90
18932;DHT22;9598;50.954;3.112;2023-04-06T23:40:21;10.80;99.90
18932;DHT22;9598;50.954;3.112;2023-04-06T23:45:25;10.80;99.90
18932;DHT22;9598;50.954;3.112;2023-04-06T23:50:27;10.80;99.90
18932;DHT22;9598;50.954;3.112;2023-04-06T23:55:30;10.80;99.90
